Time;durP1;ratioP1;P1;durP2;ratioP2;P2;SDS_P1;SDS_P2;PMS_P1;PMS_P2;Temp;Humidity;BMP_temperature;BMP_pressure;BME280_temperature;BME280_humidity;BME280_pressure;Samples;Min_cycle;Max_cycle;Signal;HPM_P1;HPM_P2
2023/01/17 00:00:12;;;;;;;23.10;14.57;;;5.50;99.90;;;5.34;69.46;93691.88;5041724;28;20467;-56
2023/01/17 00:02:41;;;;;;;24.70;14.03;;;5.50;99.90;;;5.38;68.90;93711.50;5042094;28;20488;-54
2023/01/17 00:10:39;;;;;;;22.37;13.50;;;5.60;99.90;;;5.41;69.10;93700.00;5036406;28;20606;-56
2023/01/17 00:13:06;;;;;;;20.60;12.67;;;5.60;99.90;;;5.41;69.08;93706.97;5042882;28;20558;-58
2023/01/17 00:15:35;;;;;;;17.37;10.73;;;5.60;99.90;;;5.39;69.26;93687.09;5043845;28;20464;-57
2023/01/17 00:18:04;;;;;;;19.80;11.83;;;5.60;99.90;;;5.37;69.02;93706.44;5045184;28;20487;-56
2023/01/17 00:26:03;;;;;;;13.03;10.63;;;5.50;99.90;;;5.35;69.43;93706.56;5040930;28;20463;-56
2023/01/17 01:35:28;;;;;;;58.17;23.70;;;5.40;99.90;;;5.22;70.07;93677.38;5045495;28;20486;-57
2023/01/17 01:37:56;;;;;;;14.67;10.93;;;5.40;99.90;;;5.24;70.01;93656.38;5048730;28;20471;-57
2023/01/17 01:40:23;;;;;;;15.47;10.43;;;5.40;99.90;;;5.25;70.28;93671.03;5040515;28;20468;-61
2023/01/17 01:42:51;;;;;;;16.90;11.03;;;5.40;99.90;;;5.21;70.36;93660.88;5047421;28;20464;-55
2023/01/17 01:45:20;;;;;;;13.67;9.77;;;5.40;99.90;;;5.21;70.59;93668.69;5045088;28;20532;-55
2023/01/17 01:47:47;;;;;;;14.47;9.57;;;5.40;99.90;;;5.18;70.41;93653.34;5048475;28;20609;-56
2023/01/17 01:50:15;;;;;;;14.67;9.97;;;5.40;99.90;;;5.17;70.56;93656.09;5048689;28;20444;-57
2023/01/17 01:52:44;;;;;;;18.37;11.27;;;5.40;99.90;;;5.18;70.48;93652.53;5048053;28;20483;-55
2023/01/17 01:55:15;;;;;;;17.10;10.50;;;5.40;99.90;;;5.20;70.33;93629.75;5045082;28;20482;-57
2023/01/17 01:57:46;;;;;;;15.60;10.70;;;5.40;99.90;;;5.19;70.63;93648.97;5046817;28;20996;-55
2023/01/17 02:00:16;;;;;;;18.57;11.00;;;5.40;99.90;;;5.20;70.56;93646.22;5048343;28;20459;-53
2023/01/17 02:02:44;;;;;;;20.07;10.50;;;5.40;99.90;;;5.22;70.43;93656.50;5046485;28;20530;-57
2023/01/17 02:05:11;;;;;;;18.13;10.77;;;5.40;99.90;;;5.24;70.82;93653.78;5046863;28;20548;-57
2023/01/17 02:07:41;;;;;;;15.03;9.87;;;5.40;99.90;;;5.25;70.55;93664.06;5046526;28;20463;-57
2023/01/17 02:10:09;;;;;;;17.70;11.00;;;5.40;99.90;;;5.25;70.43;93629.31;5043487;28;20459;-57
2023/01/17 02:12:38;;;;;;;31.90;15.87;;;5.40;99.90;;;5.26;70.50;93652.66;5047716;28;20472;-57
2023/01/17 02:15:07;;;;;;;28.17;15.57;;;5.40;99.90;;;5.24;70.93;93649.38;5047182;28;20557;-56
2023/01/17 02:17:40;;;;;;;22.63;13.37;;;5.40;99.90;;;5.28;71.10;93655.94;5048293;28;20471;-57
2023/01/17 02:20:43;;;;;;;17.43;9.90;;;5.40;99.90;;;5.33;71.14;93645.09;5047824;28;20451;-56
2023/01/17 02:24:09;;;;;;;16.47;10.80;;;5.50;99.90;;;5.35;70.76;93644.00;5045860;28;20963;-56
2023/01/17 02:26:57;;;;;;;15.03;10.70;;;5.50;99.90;;;5.41;70.61;93641.78;5035365;28;20476;-57
2023/01/17 02:30:20;;;;;;;14.90;10.20;;;5.60;99.90;;;5.44;70.44;93659.75;5046103;28;20467;-57
2023/01/17 02:32:55;;;;;;;14.80;10.80;;;5.60;99.90;;;5.48;70.64;93650.72;5045262;28;20537;-57
2023/01/17 02:35:29;;;;;;;18.10;11.50;;;5.60;99.90;;;5.52;70.38;93657.31;5047436;28;20501;-55
2023/01/17 02:38:03;;;;;;;20.53;11.93;;;5.70;99.90;;;5.53;70.62;93653.72;5047393;28;20822;-57
2023/01/17 02:40:34;;;;;;;21.10;11.90;;;5.70;99.90;;;5.59;70.46;93647.13;5042768;28;20634;-57
2023/01/17 02:43:04;;;;;;;17.10;10.80;;;5.70;99.90;;;5.64;70.29;93644.91;5044446;28;20635;-56
2023/01/17 02:45:31;;;;;;;18.20;11.00;;;5.80;99.90;;;5.68;70.55;93641.88;5047243;28;20566;-54
2023/01/17 02:48:00;;;;;;;20.60;12.10;;;5.80;99.90;;;5.73;70.36;93618.84;5047207;28;20541;-56
2023/01/17 02:50:31;;;;;;;19.60;11.87;;;5.80;99.90;;;5.77;70.42;93621.16;5047219;28;20498;-57
2023/01/17 02:53:16;;;;;;;21.13;11.13;;;5.90;99.90;;;5.78;70.44;93621.00;5043601;28;20475;-55
2023/01/17 02:55:51;;;;;;;22.50;12.40;;;5.90;99.90;;;5.78;70.39;93610.56;5043058;28;20502;-55
2023/01/17 02:58:39;;;;;;;19.03;12.00;;;5.90;99.90;;;5.79;70.91;93601.75;5047209;28;20479;-55
2023/01/17 03:01:14;;;;;;;23.70;12.10;;;5.90;99.90;;;5.77;70.84;93603.72;5043748;28;20535;-57
2023/01/17 03:03:47;;;;;;;18.27;13.30;;;5.90;99.90;;;5.80;70.48;93613.03;5046807;28;21002;-57
2023/01/17 03:06:17;;;;;;;20.90;12.53;;;6.00;99.90;;;5.78;71.10;93614.94;5047405;28;20522;-58
2023/01/17 03:08:46;;;;;;;17.30;11.30;;;5.90;99.90;;;5.75;70.94;93606.47;5046373;28;20526;-57
2023/01/17 03:11:13;;;;;;;17.67;11.40;;;5.90;99.90;;;5.73;71.43;93626.66;5047534;28;20986;-57
2023/01/17 03:13:41;;;;;;;14.50;9.60;;;5.90;99.90;;;5.71;71.21;93623.34;5046757;28;20471;-57
2023/01/17 03:16:12;;;;;;;18.63;11.43;;;5.90;99.90;;;5.71;71.53;93607.69;5046993;28;20992;-58
2023/01/17 03:18:39;;;;;;;17.87;11.30;;;5.90;99.90;;;5.72;71.93;93611.16;5043596;28;20567;-56
2023/01/17 03:21:08;;;;;;;16.80;11.27;;;5.90;99.90;;;5.75;71.32;93598.63;5046697;28;20474;-57
2023/01/17 03:23:35;;;;;;;15.97;11.20;;;5.90;99.90;;;5.77;71.31;93606.31;5046213;28;21040;-55
2023/01/17 03:26:02;;;;;;;16.97;10.00;;;5.90;99.90;;;5.77;71.56;93597.69;5046551;28;20458;-55
2023/01/17 03:28:30;;;;;;;14.50;10.60;;;5.90;99.90;;;5.78;71.34;93578.44;5046557;28;20472;-56
2023/01/17 03:30:57;;;;;;;21.17;12.20;;;5.90;99.90;;;5.79;71.51;93627.03;5046415;28;21254;-56
2023/01/17 03:33:24;;;;;;;16.67;11.00;;;5.90;99.90;;;5.78;71.66;93615.78;5046600;28;20472;-58
2023/01/17 03:35:53;;;;;;;17.00;10.53;;;5.90;99.90;;;5.76;72.54;93599.44;5046294;28;20460;-55
2023/01/17 03:38:21;;;;;;;15.27;10.93;;;5.90;99.90;;;5.72;71.94;93606.75;5046485;28;20472;-55
2023/01/17 03:40:49;;;;;;;14.80;10.70;;;5.90;99.90;;;5.77;71.69;93613.31;5046654;28;20509;-56
2023/01/17 03:43:16;;;;;;;18.07;11.33;;;5.90;99.90;;;5.78;71.88;93620.16;5046410;28;20468;-57
2023/01/17 03:45:43;;;;;;;17.60;10.70;;;5.90;99.90;;;5.79;71.43;93608.78;5046304;28;20562;-56
2023/01/17 03:48:10;;;;;;;17.23;12.13;;;5.90;99.90;;;5.78;71.79;93604.53;5045410;28;20482;-55
2023/01/17 03:50:38;;;;;;;17.63;11.53;;;5.90;99.90;;;5.78;71.65;93605.38;5043968;28;20444;-58
2023/01/17 03:53:05;;;;;;;20.27;11.80;;;5.90;99.90;;;5.80;72.08;93620.88;5046137;28;20525;-56
2023/01/17 03:55:34;;;;;;;20.00;11.93;;;5.90;99.90;;;5.82;71.70;93618.94;5042860;28;20449;-56
2023/01/17 03:58:01;;;;;;;18.23;11.83;;;5.90;99.90;;;5.84;72.00;93586.53;5046009;28;20529;-57
2023/01/17 04:00:28;;;;;;;16.37;10.30;;;6.00;99.90;;;5.85;72.17;93605.59;5045481;28;20460;-56
2023/01/17 04:02:55;;;;;;;14.80;10.50;;;6.00;99.90;;;5.87;71.48;93590.63;5046194;28;20975;-56
2023/01/17 04:05:23;;;;;;;18.03;11.10;;;6.00;99.90;;;5.90;71.58;93613.81;5045641;28;20491;-57
2023/01/17 04:07:50;;;;;;;18.77;10.80;;;6.00;99.90;;;5.93;71.89;93605.72;5046025;28;20472;-56
2023/01/17 04:10:17;;;;;;;15.70;11.00;;;6.10;99.90;;;5.94;71.45;93615.19;5044604;28;20985;-61
2023/01/17 04:12:46;;;;;;;17.53;11.17;;;6.10;99.90;;;5.99;71.47;93627.84;5045833;28;20541;-56
2023/01/17 04:15:13;;;;;;;16.90;11.47;;;6.10;99.90;;;6.01;71.59;93631.97;5045185;28;20451;-56
2023/01/17 04:17:41;;;;;;;19.30;11.60;;;6.20;99.90;;;6.05;71.04;93638.53;5045375;28;21050;-56
2023/01/17 04:20:12;;;;;;;19.43;10.70;;;6.20;99.90;;;6.06;71.19;93624.53;5046081;28;21338;-56
2023/01/17 04:22:39;;;;;;;19.30;11.53;;;6.20;99.90;;;6.07;71.27;93641.84;5045752;28;20533;-54
2023/01/17 04:25:08;;;;;;;17.60;12.13;;;6.20;99.90;;;6.08;71.51;93642.66;5045528;28;20503;-57
2023/01/17 04:27:35;;;;;;;14.87;11.10;;;6.30;99.90;;;6.08;70.74;93647.88;5042604;28;20475;-55
2023/01/17 04:30:04;;;;;;;18.47;12.33;;;6.20;99.90;;;6.08;70.82;93647.88;5044745;28;20460;-55
2023/01/17 04:32:31;;;;;;;14.40;10.87;;;6.20;99.90;;;6.07;71.06;93649.66;5041518;28;20517;-58
2023/01/17 04:34:59;;;;;;;19.77;12.07;;;6.20;99.90;;;6.07;71.88;93641.84;5040742;28;20608;-57
2023/01/17 04:37:26;;;;;;;17.33;11.27;;;6.20;99.90;;;6.13;72.26;93645.63;5041141;28;20448;-57
2023/01/17 04:39:53;;;;;;;16.03;11.43;;;6.20;99.90;;;6.19;71.30;93636.41;5040630;28;20456;-57
2023/01/17 04:42:20;;;;;;;18.60;11.90;;;6.30;99.90;;;6.24;71.55;93639.41;5041290;28;20458;-57
2023/01/17 04:44:48;;;;;;;13.60;9.90;;;6.30;99.90;;;6.26;71.16;93645.34;5040614;28;20534;-56
2023/01/17 04:47:16;;;;;;;18.13;11.37;;;6.40;99.90;;;6.29;71.30;93621.53;5045311;28;20456;-58
2023/01/17 04:49:43;;;;;;;14.63;10.10;;;6.40;99.90;;;6.33;71.83;93640.34;5045352;28;20455;-56
2023/01/17 04:52:11;;;;;;;14.93;9.93;;;6.50;99.90;;;6.37;71.43;93652.16;5045401;28;20945;-56
2023/01/17 04:54:38;;;;;;;17.23;10.90;;;6.50;99.90;;;6.41;71.17;93643.88;5045300;28;20509;-57
2023/01/17 04:57:07;;;;;;;16.93;11.70;;;6.50;99.90;;;6.43;71.16;93651.59;5045279;28;20456;-56
2023/01/17 04:59:35;;;;;;;33.90;19.23;;;6.50;99.90;;;6.43;70.83;93662.03;5044648;28;20486;-58
2023/01/17 05:02:02;;;;;;;17.90;11.73;;;6.50;99.90;;;6.42;71.11;93661.19;5044313;28;20451;-56
2023/01/17 05:04:31;;;;;;;21.93;11.17;;;6.50;99.90;;;6.44;70.79;93672.34;5042993;28;20577;-56
2023/01/17 05:06:58;;;;;;;21.07;12.97;;;6.60;99.90;;;6.43;70.71;93664.63;5038658;28;20464;-57
2023/01/17 05:09:25;;;;;;;16.90;11.40;;;6.60;99.90;;;6.43;70.34;93680.31;5042129;28;20562;-57
2023/01/17 05:11:54;;;;;;;25.43;12.23;;;6.50;99.90;;;6.43;71.14;93677.69;5044724;28;20456;-57
2023/01/17 05:14:24;;;;;;;14.87;10.20;;;6.60;99.90;;;6.42;70.16;93666.41;5043374;28;20479;-56
2023/01/17 05:16:53;;;;;;;20.27;13.17;;;6.60;99.90;;;6.40;70.79;93689.25;5043676;28;20456;-56
2023/01/17 05:19:20;;;;;;;20.60;12.23;;;6.60;99.90;;;6.38;70.30;93691.19;5043353;28;20541;-57
2023/01/17 05:21:49;;;;;;;17.47;10.90;;;6.50;99.90;;;6.37;70.54;93688.72;5044241;28;20479;-55
2023/01/17 05:24:17;;;;;;;17.83;12.20;;;6.50;99.90;;;6.31;70.68;93671.81;5042111;28;20471;-56
2023/01/17 05:26:44;;;;;;;18.77;11.47;;;6.50;99.90;;;6.37;70.50;93675.66;5043874;28;20451;-57
2023/01/17 05:29:12;;;;;;;18.63;11.87;;;6.50;99.90;;;6.39;70.82;93655.44;5042364;28;20487;-57
2023/01/17 05:31:39;;;;;;;18.87;12.13;;;6.50;99.90;;;6.43;70.46;93656.81;5042640;28;20921;-57
2023/01/17 05:34:06;;;;;;;20.13;13.00;;;6.60;99.90;;;6.45;70.86;93647.84;5038952;28;20509;-59
2023/01/17 05:36:34;;;;;;;16.10;11.13;;;6.60;99.90;;;6.48;70.39;93664.22;5041358;28;20464;-55
2023/01/17 05:39:02;;;;;;;15.00;11.43;;;6.60;99.90;;;6.49;70.65;93668.44;5044998;28;20548;-58
2023/01/17 05:41:30;;;;;;;15.87;9.97;;;6.60;99.90;;;6.50;70.71;93660.47;5044226;28;20845;-56
2023/01/17 05:43:57;;;;;;;12.13;9.33;;;6.60;99.90;;;6.52;70.27;93640.25;5043894;28;20470;-56
2023/01/17 05:46:24;;;;;;;17.57;11.00;;;6.60;99.90;;;6.55;70.46;93639.97;5042592;28;20519;-57
2023/01/17 05:48:52;;;;;;;15.23;10.03;;;6.70;99.90;;;6.56;70.43;93614.66;5043534;28;20914;-57
2023/01/17 05:51:19;;;;;;;11.70;9.60;;;6.70;99.90;;;6.55;70.31;93619.06;5043902;28;20456;-58
2023/01/17 05:53:46;;;;;;;18.33;9.60;;;6.70;99.90;;;6.57;70.65;93637.22;5044530;28;20553;-57
2023/01/17 05:56:15;;;;;;;13.77;9.30;;;6.70;99.90;;;6.59;70.46;93632.66;5042977;28;20519;-55
2023/01/17 05:58:42;;;;;;;17.20;11.10;;;6.70;99.90;;;6.61;70.10;93638.53;5039549;28;20487;-58
2023/01/17 06:01:10;;;;;;;17.00;11.80;;;6.70;99.90;;;6.62;70.35;93646.25;5038801;28;20456;-57
2023/01/17 06:03:37;;;;;;;17.23;11.43;;;6.70;99.90;;;6.64;70.36;93623.38;5042971;28;20638;-56
2023/01/17 06:06:05;;;;;;;17.50;11.80;;;6.70;99.90;;;6.68;69.86;93608.25;5043934;28;20583;-58
2023/01/17 06:08:32;;;;;;;46.07;22.77;;;6.80;99.90;;;6.77;70.13;93601.31;5043021;28;20476;-58
2023/01/17 06:10:59;;;;;;;25.00;15.23;;;6.80;99.90;;;6.92;70.22;93622.53;5045652;28;20772;-56
2023/01/17 06:13:28;;;;;;;30.10;13.77;;;7.00;99.90;;;7.01;69.56;93592.88;5047070;28;20471;-56
2023/01/17 06:16:01;;;;;;;16.60;11.30;;;7.10;99.90;;;7.10;69.64;93617.31;5047581;28;20462;-56
2023/01/17 06:18:28;;;;;;;15.50;9.93;;;7.10;99.90;;;7.26;69.39;93616.63;5044677;28;20472;-58
2023/01/17 06:20:55;;;;;;;13.27;9.90;;;7.30;99.90;;;7.46;67.84;93589.31;5046361;28;20448;-55
2023/01/17 06:23:23;;;;;;;14.20;10.07;;;7.40;99.90;;;7.54;68.38;93609.50;5047276;28;20471;-58
2023/01/17 06:25:50;;;;;;;16.00;10.33;;;7.50;99.90;;;7.53;68.66;93618.34;5046241;28;20487;-57
2023/01/17 06:28:19;;;;;;;13.63;10.37;;;7.50;99.90;;;7.56;68.09;93636.34;5046751;28;20498;-56
2023/01/17 06:30:48;;;;;;;14.33;9.50;;;7.60;99.90;;;7.57;68.13;93655.47;5047083;28;20456;-57
2023/01/17 06:33:15;;;;;;;12.50;9.70;;;7.60;99.90;;;7.57;68.33;93640.59;5047598;28;20471;-57
2023/01/17 06:35:48;;;;;;;15.63;11.20;;;7.70;99.90;;;7.58;68.46;93652.69;5046775;28;20606;-57
2023/01/17 06:38:15;;;;;;;18.80;11.67;;;7.70;99.90;;;7.61;67.99;93641.13;5047652;28;20482;-56
2023/01/17 06:40:42;;;;;;;15.40;10.37;;;7.70;99.90;;;7.65;68.47;93652.91;5046847;28;20577;-57
2023/01/17 06:43:10;;;;;;;14.80;10.70;;;7.70;99.90;;;7.68;68.41;93642.13;5047329;28;20877;-57
2023/01/17 06:45:37;;;;;;;16.83;12.20;;;7.70;99.90;;;7.71;68.09;93637.44;5046754;28;20578;-56
2023/01/17 06:48:06;;;;;;;17.33;10.80;;;7.80;99.90;;;7.74;67.86;93662.47;5047301;28;20640;-58
2023/01/17 06:50:34;;;;;;;16.67;11.30;;;7.80;99.90;;;7.77;67.40;93666.59;5046848;28;20452;-57
2023/01/17 06:53:03;;;;;;;12.10;8.97;;;7.80;99.90;;;7.80;67.48;93650.56;5042946;28;20985;-57
2023/01/17 06:55:32;;;;;;;15.60;9.63;;;7.90;99.90;;;7.85;67.93;93659.63;5044700;28;20452;-56
2023/01/17 06:58:01;;;;;;;16.93;11.67;;;7.90;99.90;;;7.92;67.11;93656.34;5046804;28;20496;-56
2023/01/17 07:00:29;;;;;;;19.63;11.37;;;8.00;99.90;;;7.95;67.34;93662.13;5047034;28;21113;-56
2023/01/17 07:02:56;;;;;;;19.73;11.80;;;8.00;99.90;;;7.99;67.32;93645.13;5046539;28;20486;-55
2023/01/17 07:05:27;;;;;;;18.70;11.20;;;8.00;99.90;;;8.04;67.51;93652.50;5046977;28;20495;-56
2023/01/17 07:07:54;;;;;;;15.77;10.77;;;8.10;99.90;;;8.06;67.28;93650.56;5046671;28;20487;-56
2023/01/17 07:10:23;;;;;;;17.33;10.03;;;8.10;99.90;;;8.09;67.23;93652.88;5044284;28;20470;-56
2023/01/17 07:12:50;;;;;;;19.77;10.53;;;8.10;99.90;;;8.12;66.81;93639.47;5046637;28;20499;-55
2023/01/17 07:15:17;;;;;;;19.40;11.07;;;8.20;99.90;;;8.19;66.84;93635.25;5044888;28;20530;-56
2023/01/17 07:17:45;;;;;;;14.07;9.37;;;8.30;99.90;;;8.34;66.97;93638.13;5046734;28;20480;-56
2023/01/17 07:20:12;;;;;;;12.13;8.60;;;8.40;99.90;;;8.60;66.97;93651.19;5045001;28;20462;-57
2023/01/17 07:22:44;;;;;;;11.30;9.17;;;8.60;99.90;;;8.91;66.32;93634.91;5045224;28;20555;-57
2023/01/17 07:25:12;;;;;;;12.47;9.37;;;8.90;99.90;;;9.19;65.72;93655.63;5044861;28;20476;-57
2023/01/17 07:27:39;;;;;;;14.23;9.13;;;9.20;99.90;;;9.40;65.06;93652.50;5044742;28;20476;-57
2023/01/17 07:30:08;;;;;;;10.67;6.97;;;9.40;99.90;;;9.58;64.61;93665.50;5045324;28;20455;-57
2023/01/17 07:32:36;;;;;;;5.87;4.80;;;9.60;99.90;;;9.82;64.02;93646.31;5044650;28;20526;-55
2023/01/17 07:35:03;;;;;;;8.30;6.30;;;9.80;99.90;;;10.11;64.15;93650.19;5046132;28;20566;-57
2023/01/17 07:37:30;;;;;;;7.30;4.57;;;10.10;99.90;;;10.40;63.64;93652.28;5045894;28;20475;-55
2023/01/17 07:40:01;;;;;;;8.07;5.73;;;10.40;99.90;;;10.74;62.92;93639.84;5046046;28;20991;-58
2023/01/17 07:42:28;;;;;;;10.83;7.10;;;10.70;99.90;;;11.11;62.15;93643.63;5042616;28;20483;-57
2023/01/17 07:44:56;;;;;;;10.80;7.37;;;11.00;99.50;;;11.48;61.14;93650.78;5041340;28;20834;-58
2023/01/17 07:47:23;;;;;;;10.07;7.53;;;11.40;99.00;;;11.85;60.29;93651.00;5041690;28;20483;-56
2023/01/17 07:49:51;;;;;;;9.77;5.70;;;11.70;98.00;;;12.19;59.88;93663.72;5040716;28;20952;-55
2023/01/17 07:52:18;;;;;;;13.17;6.43;;;12.00;98.10;;;12.44;59.32;93660.00;5045421;28;20494;-57
2023/01/17 07:54:45;;;;;;;10.47;8.10;;;12.30;97.40;;;12.54;58.76;93655.28;5047094;28;20460;-57
2023/01/17 07:57:14;;;;;;;5.23;3.93;;;12.40;96.80;;;12.58;58.68;93655.72;5045908;28;20975;-57
2023/01/17 07:59:41;;;;;;;2.57;2.37;;;12.50;96.70;;;12.61;57.76;93669.41;5045571;28;20460;-57
2023/01/17 08:02:11;;;;;;;2.43;2.17;;;12.60;95.90;;;12.65;58.19;93672.47;5045351;28;20459;-55
2023/01/17 08:04:38;;;;;;;3.33;2.17;;;12.60;96.10;;;12.70;57.96;93667.47;5045354;28;20451;-56
2023/01/17 08:07:05;;;;;;;3.47;1.43;;;12.60;95.70;;;12.79;57.58;93674.28;5045422;28;20494;-57
2023/01/17 08:09:33;;;;;;;6.23;2.97;;;12.70;95.50;;;12.87;56.37;93676.00;5044544;28;20463;-56
2023/01/17 08:12:00;;;;;;;3.00;2.40;;;12.80;94.60;;;12.91;56.19;93666.75;5045388;28;20459;-57
2023/01/17 08:14:29;;;;;;;1.30;1.10;;;12.80;94.30;;;12.98;55.78;93667.66;5045224;28;20478;-57
2023/01/17 08:17:04;;;;;;;2.00;1.90;;;12.90;93.70;;;13.09;55.10;93669.81;5045239;28;20460;-57
2023/01/17 08:19:32;;;;;;;3.20;1.77;;;13.00;93.40;;;13.27;55.48;93650.09;5045198;28;20526;-56
2023/01/17 08:21:59;;;;;;;3.67;1.83;;;13.20;93.70;;;13.55;54.22;93654.69;5045294;28;20458;-57
2023/01/17 08:24:26;;;;;;;1.43;1.33;;;13.40;92.90;;;13.74;54.35;93671.72;5045111;28;21011;-57
2023/01/17 08:26:55;;;;;;;3.17;1.50;;;13.60;92.90;;;13.85;53.58;93668.59;5045292;28;20502;-58
2023/01/17 08:29:22;;;;;;;2.50;1.60;;;13.70;92.10;;;13.99;53.15;93680.09;5045573;28;20467;-55
2023/01/17 08:31:51;;;;;;;6.07;2.97;;;13.90;91.80;;;14.22;53.23;93666.66;5044789;28;20470;-57
2023/01/17 08:34:18;;;;;;;1.70;1.40;;;14.00;91.70;;;14.56;52.98;93665.03;5044484;28;20487;-56
2023/01/17 08:36:46;;;;;;;5.03;1.40;;;14.30;91.50;;;14.98;51.72;93691.59;5045048;28;20545;-55
2023/01/17 08:39:14;;;;;;;2.23;1.80;;;14.70;90.60;;;15.35;50.80;93687.69;5044816;28;20558;-55
2023/01/17 08:41:41;;;;;;;6.77;1.57;;;15.10;89.50;;;15.68;49.82;93679.03;5045380;28;20451;-56
2023/01/17 08:44:08;;;;;;;1.67;1.40;;;15.40;87.60;;;15.94;49.43;93672.13;5043811;28;20529;-56
2023/01/17 08:46:38;;;;;;;2.13;1.43;;;15.60;85.60;;;16.22;48.46;93664.00;5045233;28;20499;-57
2023/01/17 08:49:08;;;;;;;3.57;1.90;;;15.90;83.20;;;16.46;48.22;93681.13;5044272;28;20471;-57
2023/01/17 08:51:35;;;;;;;11.90;3.00;;;16.10;82.30;;;16.61;47.03;93714.63;5045277;28;20555;-56
2023/01/17 08:54:02;;;;;;;5.53;2.90;;;16.30;79.90;;;16.71;47.05;93703.59;5044192;28;21093;-56
2023/01/17 08:56:30;;;;;;;1.70;1.60;;;16.50;79.10;;;16.89;46.37;93681.75;5045337;28;20452;-56
2023/01/17 08:58:57;;;;;;;3.13;1.90;;;16.60;78.10;;;17.09;46.41;93679.84;5041766;28;20480;-56
2023/01/17 09:01:24;;;;;;;3.57;1.80;;;16.80;77.50;;;17.30;46.52;93664.63;5044317;28;20895;-57
2023/01/17 09:03:52;;;;;;;5.50;3.63;;;17.00;77.90;;;17.49;46.42;93665.56;5044324;28;20551;-57
2023/01/17 09:06:20;;;;;;;5.23;1.30;;;17.20;77.20;;;17.67;45.33;93670.97;5044796;28;20498;-57
2023/01/17 09:08:48;;;;;;;2.07;1.30;;;17.30;74.30;;;17.78;45.52;93672.16;5042326;28;20518;-56
2023/01/17 09:11:16;;;;;;;2.43;1.70;;;17.50;73.70;;;17.98;45.17;93664.06;5045168;28;20828;-58
2023/01/17 09:13:43;;;;;;;5.47;1.70;;;17.60;72.50;;;18.18;44.20;93677.25;5045118;28;20561;-57
2023/01/17 09:16:11;;;;;;;1.37;1.27;;;17.80;71.00;;;18.13;43.45;93657.66;5044950;28;20452;-58
2023/01/17 09:18:38;;;;;;;2.60;1.50;;;17.80;69.10;;;17.99;44.14;93652.41;5044548;28;21007;-57
2023/01/17 09:21:12;;;;;;;1.10;1.00;;;17.80;69.00;;;17.90;43.42;93643.06;5044435;28;20968;-54
2023/01/17 09:23:40;;;;;;;3.33;1.60;;;17.70;68.10;;;17.80;43.65;93650.66;5043704;28;20914;-57
2023/01/17 09:26:09;;;;;;;3.67;1.30;;;17.60;68.50;;;17.80;43.11;93643.50;5044211;28;21046;-58
2023/01/17 09:28:39;;;;;;;2.00;1.30;;;17.50;68.10;;;17.88;43.18;93667.22;5044062;28;20475;-55
2023/01/17 09:31:08;;;;;;;3.70;1.50;;;17.60;68.50;;;17.90;43.79;93662.47;5044299;28;20444;-57
2023/01/17 09:33:35;;;;;;;4.70;1.17;;;17.60;67.90;;;17.92;44.04;93639.16;5040387;28;20476;-58
2023/01/17 09:36:04;;;;;;;1.30;1.20;;;17.60;67.90;;;17.83;42.97;93640.41;5044398;28;20463;-58
2023/01/17 09:38:31;;;;;;;2.73;1.00;;;17.60;65.90;;;17.65;43.94;93632.34;5041024;28;20475;-56
2023/01/17 09:41:00;;;;;;;9.93;1.53;;;17.40;67.00;;;17.59;43.60;93651.81;5044381;28;20919;-58
2023/01/17 09:43:37;;;;;;;6.50;1.60;;;17.40;67.30;;;17.51;44.42;93628.97;5044436;28;20468;-57
2023/01/17 09:46:05;;;;;;;5.37;1.20;;;17.30;67.70;;;17.51;43.62;93640.41;5044037;28;20634;-56
2023/01/17 09:48:36;;;;;;;8.30;1.20;;;17.30;67.70;;;17.44;43.96;93666.19;5047759;28;20486;-57
2023/01/17 09:51:07;;;;;;;1.00;0.87;;;17.20;67.10;;;17.11;43.94;93659.19;5047822;28;20444;-57
2023/01/17 09:53:36;;;;;;;1.60;1.00;;;17.00;67.30;;;16.92;44.82;93673.34;5047325;28;20558;-58
2023/01/17 09:56:07;;;;;;;1.97;1.70;;;16.80;68.30;;;16.93;44.93;93674.97;5048055;28;20459;-56
2023/01/17 09:58:38;;;;;;;3.00;1.70;;;16.80;68.70;;;16.88;45.25;93680.91;5044157;28;20472;-57
2023/01/17 10:01:13;;;;;;;1.93;1.10;;;16.70;68.50;;;16.79;44.73;93690.91;5048120;28;20448;-56
2023/01/17 10:03:50;;;;;;;2.80;1.60;;;16.60;68.40;;;16.77;45.44;93647.00;5047747;28;20472;-56
2023/01/17 10:06:31;;;;;;;3.00;1.83;;;16.60;69.50;;;16.74;45.21;93666.00;5047693;28;20475;-58
2023/01/17 10:09:09;;;;;;;2.50;1.40;;;16.50;68.60;;;16.71;45.16;93656.59;5044946;28;20490;-57
2023/01/17 10:11:48;;;;;;;1.23;1.00;;;16.50;69.30;;;16.60;45.68;93654.59;5047030;28;21672;-57
2023/01/17 10:15:05;;;;;;;7.13;1.57;;;16.40;69.50;;;16.36;45.59;93656.88;5040993;28;20578;-56
2023/01/17 10:17:41;;;;;;;1.27;1.17;;;16.30;69.40;;;16.10;45.47;93676.25;4996095;28;20590;-57
2023/01/17 10:20:19;;;;;;;5.50;1.57;;;16.00;69.00;;;15.78;46.36;93665.41;5043443;28;20838;-56
2023/01/17 10:23:00;;;;;;;2.30;2.10;;;15.80;70.10;;;15.52;46.94;93660.81;5046785;28;20547;-55
2023/01/17 10:25:43;;;;;;;2.20;1.93;;;15.60;71.00;;;15.36;47.34;93670.75;5046955;28;20931;-58
2023/01/17 10:28:16;;;;;;;10.07;1.47;;;15.30;71.60;;;15.23;47.70;93668.88;5045452;28;20482;-58
2023/01/17 10:30:48;;;;;;;9.20;1.37;;;15.20;72.30;;;15.12;48.07;93673.94;5046889;28;20454;-55
2023/01/17 10:33:20;;;;;;;3.40;1.43;;;15.00;72.80;;;15.06;48.24;93672.91;5045717;28;20556;-57
2023/01/17 10:35:57;;;;;;;2.27;1.23;;;15.00;73.60;;;15.01;48.28;93688.53;5041017;28;20456;-58
2023/01/17 10:38:29;;;;;;;2.40;1.50;;;14.90;73.60;;;14.86;48.23;93668.31;5043690;28;20541;-56
2023/01/17 10:41:01;;;;;;;3.20;1.60;;;14.80;73.80;;;14.79;48.63;93675.41;5046778;28;20947;-57
2023/01/17 10:43:40;;;;;;;3.03;1.13;;;14.80;74.30;;;14.77;48.66;93687.22;5047070;28;20472;-57
2023/01/17 10:46:15;;;;;;;2.43;1.40;;;14.70;74.60;;;14.72;48.68;93679.84;5044628;28;20859;-54
2023/01/17 10:48:44;;;;;;;1.73;1.17;;;14.60;74.70;;;14.65;49.23;93668.41;5046954;28;20464;-58
2023/01/17 10:51:27;;;;;;;2.20;1.20;;;14.60;75.40;;;14.59;49.24;93654.06;5046268;28;20581;-58
2023/01/17 10:54:04;;;;;;;6.23;1.50;;;14.50;75.60;;;14.56;49.56;93649.16;5044725;28;20467;-55
2023/01/17 10:56:31;;;;;;;1.70;1.60;;;14.50;76.10;;;14.53;49.48;93650.41;5046683;28;20912;-58
2023/01/17 10:59:17;;;;;;;2.13;1.40;;;14.50;76.20;;;14.46;49.60;93664.59;5046928;28;21060;-56
2023/01/17 11:01:44;;;;;;;3.00;1.90;;;14.40;76.00;;;14.37;49.75;93634.81;5043007;28;20452;-56
2023/01/17 11:04:18;;;;;;;1.00;0.80;;;14.30;76.40;;;14.29;49.77;93641.06;5046161;28;20475;-57
2023/01/17 11:06:46;;;;;;;9.40;1.70;;;14.30;76.60;;;14.23;50.01;93633.91;5046726;28;20480;-58
2023/01/17 11:09:14;;;;;;;3.90;1.90;;;14.20;77.00;;;14.21;50.30;93643.88;5045507;28;20480;-57
2023/01/17 11:11:47;;;;;;;3.07;1.17;;;14.20;77.60;;;14.18;49.98;93641.59;5046757;28;20466;-58
2023/01/17 11:14:20;;;;;;;4.07;1.97;;;14.10;77.40;;;14.13;50.39;93615.75;5046516;28;20468;-57
2023/01/17 11:16:59;;;;;;;1.53;1.20;;;14.10;77.80;;;14.12;50.24;93626.50;5046188;28;20979;-57
2023/01/17 11:19:29;;;;;;;2.50;1.10;;;14.10;78.00;;;14.11;50.28;93609.00;5043379;28;21386;-55
2023/01/17 11:22:00;;;;;;;1.80;1.53;;;14.10;78.00;;;14.12;50.24;93611.44;5045897;28;20456;-57
2023/01/17 11:24:32;;;;;;;2.53;1.37;;;14.10;78.40;;;14.18;50.47;93598.50;5046523;28;20472;-58
2023/01/17 11:26:59;;;;;;;4.90;1.77;;;14.10;78.50;;;14.19;49.85;93614.16;5046226;28;20491;-55
2023/01/17 11:29:33;;;;;;;8.13;1.40;;;14.10;77.70;;;14.18;50.13;93585.28;5046248;28;20471;-57
2023/01/17 11:32:28;;;;;;;4.20;1.03;;;14.10;77.80;;;14.19;49.87;93595.66;5045841;28;20455;-56
2023/01/17 11:35:24;;;;;;;1.90;1.30;;;14.10;77.50;;;14.20;50.01;93580.59;5045263;28;20543;-57
2023/01/17 11:38:03;;;;;;;1.43;1.23;;;14.10;77.60;;;14.21;49.51;93582.25;5010726;28;21027;-56
2023/01/17 11:40:31;;;;;;;4.33;1.10;;;14.20;77.20;;;14.17;49.41;93565.91;5042991;28;20462;-57
2023/01/17 11:43:20;;;;;;;1.10;1.00;;;14.10;76.70;;;14.18;49.35;93564.13;5046192;28;20487;-57
2023/01/17 11:46:02;;;;;;;1.50;1.40;;;14.10;76.40;;;14.21;49.01;93555.78;5044349;28;20824;-58
2023/01/17 11:48:37;;;;;;;4.50;1.67;;;14.10;76.20;;;14.22;49.17;93552.13;5046149;28;20643;-57
2023/01/17 11:51:11;;;;;;;1.73;0.90;;;14.20;76.70;;;14.23;49.09;93543.19;5045394;28;20436;-58